createdAt,value
2023-05-07T00:00:09.979Z,12.85
2023-05-07T00:05:12.074Z,7.93
2023-05-07T00:10:14.035Z,9.60
2023-05-07T00:15:15.428Z,9.97
2023-05-07T00:20:16.843Z,8.43
2023-05-07T00:25:20.059Z,9.80
2023-05-07T00:30:21.892Z,8.77
2023-05-07T00:35:23.255Z,8.83
2023-05-07T00:40:24.995Z,9.47
2023-05-07T00:45:29.933Z,11.57
2023-05-07T00:50:32.710Z,15.23
2023-05-07T00:55:35.595Z,10.77
2023-05-07T01:00:37.480Z,11.73
2023-05-07T01:05:39.002Z,10.67
2023-05-07T01:10:43.329Z,10.43
2023-05-07T01:15:44.626Z,9.57
2023-05-07T01:20:46.021Z,8.77
2023-05-07T01:25:54.753Z,11.63
2023-05-07T01:31:03.889Z,10.07
2023-05-07T01:36:07.690Z,11.43
2023-05-07T01:41:09.394Z,10.20
2023-05-07T01:46:12.322Z,14.37
2023-05-07T01:51:13.767Z,10.90
2023-05-07T01:56:15.351Z,13.20
2023-05-07T02:01:18.597Z,15.57
2023-05-07T02:06:20.361Z,11.73
2023-05-07T02:11:22.036Z,10.37
2023-05-07T02:16:24.258Z,13.00
2023-05-07T02:21:27.065Z,15.40
2023-05-07T02:26:29.360Z,13.47
2023-05-07T02:31:30.963Z,11.63
2023-05-07T02:36:32.691Z,12.23
2023-05-07T02:41:42.040Z,13.70
2023-05-07T02:46:43.214Z,13.33
2023-05-07T02:51:47.259Z,10.93
2023-05-07T02:56:54.745Z,11.23
2023-05-07T03:01:56.116Z,9.30
2023-05-07T03:06:57.903Z,16.57
2023-05-07T03:11:59.379Z,12.83
2023-05-07T03:17:00.698Z,16.17
2023-05-07T03:22:01.955Z,12.97
2023-05-07T03:27:03.746Z,14.27
2023-05-07T03:32:06.238Z,10.40
2023-05-07T03:37:08.010Z,14.33
2023-05-07T03:42:09.603Z,16.33
2023-05-07T03:47:11.161Z,13.63
2023-05-07T03:52:14.038Z,13.67
2023-05-07T03:57:15.878Z,12.73
2023-05-07T04:02:17.417Z,14.43
2023-05-07T04:07:19.320Z,11.33
2023-05-07T04:12:24.588Z,12.37
2023-05-07T04:17:26.684Z,12.13
2023-05-07T04:22:28.266Z,12.37
2023-05-07T04:27:30.196Z,12.00
2023-05-07T04:32:32.112Z,15.13
2023-05-07T04:37:33.536Z,17.40
2023-05-07T04:42:36.030Z,14.93
2023-05-07T04:47:38.988Z,14.07
2023-05-07T04:52:40.568Z,14.10
2023-05-07T04:57:42.169Z,15.60
2023-05-07T05:02:46.574Z,14.30
2023-05-07T05:07:52.011Z,18.87
2023-05-07T05:12:54.125Z,14.50
2023-05-07T05:17:57.259Z,14.90
2023-05-07T05:22:59.207Z,16.50
2023-05-07T05:28:01.636Z,17.00
2023-05-07T05:33:03.865Z,19.47
2023-05-07T05:38:05.513Z,15.02
2023-05-07T05:43:08.477Z,16.13
2023-05-07T05:48:11.975Z,16.43
2023-05-07T05:53:13.785Z,19.30
2023-05-07T05:58:15.566Z,16.38
2023-05-07T06:03:23.205Z,11.70
2023-05-07T06:08:24.743Z,12.85
2023-05-07T06:13:26.735Z,15.70
2023-05-07T06:18:28.734Z,11.85
2023-05-07T06:23:30.358Z,10.20
2023-05-07T06:28:36.016Z,11.50
2023-05-07T06:33:40.215Z,15.23
2023-05-07T06:38:42.397Z,11.13
2023-05-07T06:43:43.628Z,11.13
2023-05-07T06:49:03.474Z,12.13
2023-05-07T06:54:05.200Z,11.80
2023-05-07T06:59:08.104Z,13.90
2023-05-07T07:04:13.813Z,11.93
2023-05-07T07:09:17.910Z,10.25
2023-05-07T07:14:19.535Z,12.02
2023-05-07T07:19:25.207Z,9.93
2023-05-07T07:24:29.719Z,13.18
2023-05-07T07:29:34.448Z,10.43
2023-05-07T07:34:36.441Z,10.65
2023-05-07T07:39:38.112Z,11.45
2023-05-07T07:44:40.968Z,9.88
2023-05-07T07:49:44.900Z,12.10
2023-05-07T07:54:46.367Z,10.20
2023-05-07T07:59:47.660Z,12.40
2023-05-07T08:04:50.645Z,10.07
2023-05-07T08:09:52.904Z,9.70
2023-05-07T08:14:58.104Z,10.65
2023-05-07T08:19:59.639Z,8.65
2023-05-07T08:25:01.517Z,9.38
2023-05-07T08:30:04.366Z,11.30
2023-05-07T08:35:06.328Z,6.53
2023-05-07T08:40:10.214Z,10.30
2023-05-07T08:45:14.227Z,7.85
2023-05-07T08:50:21.113Z,6.90
2023-05-07T08:55:24.612Z,9.63
2023-05-07T09:00:26.020Z,8.25
2023-05-07T09:05:30.544Z,5.88
2023-05-07T09:10:34.024Z,6.93
2023-05-07T09:15:36.018Z,7.22
2023-05-07T09:20:38.968Z,8.13
2023-05-07T09:25:41.012Z,8.10
2023-05-07T09:30:50.548Z,7.82
2023-05-07T09:35:52.422Z,6.95
2023-05-07T09:41:08.055Z,7.65
2023-05-07T09:46:20.754Z,6.82
2023-05-07T09:51:50.945Z,9.68
2023-05-07T09:56:54.530Z,5.95
2023-05-07T10:02:01.571Z,8.15
2023-05-07T10:07:06.279Z,7.38
2023-05-07T10:12:09.510Z,7.28
2023-05-07T10:17:12.584Z,7.22
2023-05-07T10:22:17.376Z,6.15
2023-05-07T10:27:22.875Z,8.52
2023-05-07T10:32:42.980Z,7.65
2023-05-07T10:37:49.924Z,9.30
2023-05-07T10:43:02.858Z,8.50
2023-05-07T10:53:27.683Z,7.55
2023-05-07T10:58:43.716Z,9.43
2023-05-07T11:04:31.599Z,8.00
2023-05-07T11:10:04.699Z,6.60
2023-05-07T11:15:17.582Z,4.60
2023-05-07T11:20:19.895Z,6.70
2023-05-07T11:25:26.883Z,6.05
2023-05-07T11:30:35.102Z,3.78
2023-05-07T11:35:37.605Z,5.07
2023-05-07T11:40:57.159Z,4.57
2023-05-07T11:46:12.118Z,7.75
2023-05-07T11:51:18.859Z,4.03
2023-05-07T11:56:20.952Z,6.13
2023-05-07T12:01:22.318Z,4.63
2023-05-07T12:06:23.629Z,5.13
2023-05-07T12:11:26.054Z,5.70
2023-05-07T12:16:28.078Z,3.33
2023-05-07T12:21:29.948Z,4.95
2023-05-07T12:26:31.433Z,6.28
2023-05-07T12:31:33.130Z,3.97
2023-05-07T12:36:38.990Z,5.00
2023-05-07T12:41:55.274Z,6.15
2023-05-07T12:46:56.899Z,6.03
2023-05-07T12:51:58.977Z,5.63
2023-05-07T12:57:05.932Z,4.63
2023-05-07T13:02:08.754Z,4.40
2023-05-07T13:07:12.209Z,4.25
2023-05-07T13:12:13.578Z,5.32
2023-05-07T13:17:14.976Z,5.03
2023-05-07T13:22:16.780Z,4.25
2023-05-07T13:27:19.477Z,3.30
2023-05-07T13:32:20.687Z,4.70
2023-05-07T13:37:22.013Z,4.25
2023-05-07T13:42:23.689Z,5.10
2023-05-07T13:47:25.042Z,6.32
2023-05-07T13:52:26.683Z,3.22
2023-05-07T13:57:27.962Z,3.75
2023-05-07T14:02:29.539Z,3.63
2023-05-07T14:07:31.123Z,3.97
2023-05-07T14:12:33.668Z,6.10
2023-05-07T14:17:35.066Z,3.88
2023-05-07T14:22:36.547Z,6.00
2023-05-07T14:27:38.366Z,4.90
2023-05-07T14:32:39.851Z,4.55
2023-05-07T14:37:41.299Z,6.57
2023-05-07T14:42:42.740Z,4.93
2023-05-07T14:47:44.017Z,5.13
2023-05-07T14:52:45.293Z,5.88
2023-05-07T14:57:46.588Z,5.85
2023-05-07T15:02:48.003Z,5.22
2023-05-07T15:07:49.289Z,5.97
2023-05-07T15:12:50.760Z,6.43
2023-05-07T15:17:52.360Z,7.07
2023-05-07T15:22:54.060Z,7.05
2023-05-07T15:27:55.681Z,6.00
2023-05-07T15:32:57.491Z,6.53
2023-05-07T15:37:59.174Z,7.85
2023-05-07T15:43:00.736Z,6.80
2023-05-07T15:48:02.607Z,6.55
2023-05-07T15:53:04.771Z,6.70
2023-05-07T15:58:06.233Z,6.90
2023-05-07T16:03:08.104Z,8.40
2023-05-07T16:08:09.663Z,8.52
2023-05-07T16:13:10.984Z,9.32
2023-05-07T16:18:15.475Z,10.57
2023-05-07T16:23:17.445Z,10.18
2023-05-07T16:28:18.862Z,10.18
2023-05-07T16:33:20.581Z,10.18
2023-05-07T16:38:21.853Z,9.23
2023-05-07T16:43:23.277Z,8.05
2023-05-07T16:48:25.163Z,8.48
2023-05-07T16:53:26.584Z,8.30
2023-05-07T16:58:28.062Z,8.18
2023-05-07T17:03:31.405Z,8.00
2023-05-07T17:08:32.706Z,7.93
2023-05-07T17:13:33.890Z,7.95
2023-05-07T17:18:35.450Z,10.25
2023-05-07T17:23:37.533Z,8.05
2023-05-07T17:28:39.138Z,7.20
2023-05-07T17:33:40.535Z,7.15
2023-05-07T17:38:41.947Z,8.75
2023-05-07T17:43:43.454Z,7.68
2023-05-07T17:48:44.858Z,6.90
2023-05-07T17:53:46.229Z,7.03
2023-05-07T17:58:58.904Z,7.25
2023-05-07T18:04:01.740Z,8.10
2023-05-07T18:09:03.479Z,7.85
2023-05-07T18:14:05.280Z,8.07
2023-05-07T18:19:06.545Z,8.27
2023-05-07T18:24:08.480Z,9.32
2023-05-07T18:29:10.201Z,8.48
2023-05-07T18:34:13.575Z,9.25
2023-05-07T18:39:14.843Z,7.35
2023-05-07T18:44:16.428Z,7.30
2023-05-07T18:49:17.593Z,6.85
2023-05-07T18:54:18.778Z,7.53
2023-05-07T18:59:20.184Z,11.00
2023-05-07T19:04:21.804Z,6.90
2023-05-07T19:09:23.182Z,8.20
2023-05-07T19:14:24.602Z,7.95
2023-05-07T19:19:27.110Z,8.38
2023-05-07T19:24:28.677Z,8.60
2023-05-07T19:29:30.675Z,8.55
2023-05-07T19:34:32.036Z,9.40
2023-05-07T19:39:33.410Z,9.20
2023-05-07T19:44:34.619Z,9.45
2023-05-07T19:49:36.070Z,11.05
2023-05-07T19:54:37.433Z,10.73
2023-05-07T19:59:39.637Z,11.00
2023-05-07T20:04:40.919Z,12.27
2023-05-07T20:09:42.059Z,10.18
2023-05-07T20:14:43.284Z,9.20
2023-05-07T20:19:44.546Z,11.02
2023-05-07T20:24:46.324Z,11.85
2023-05-07T20:29:47.655Z,9.07
2023-05-07T20:34:48.908Z,11.88
2023-05-07T20:39:50.239Z,12.50
2023-05-07T20:44:51.809Z,10.85
2023-05-07T20:49:54.012Z,13.80
2023-05-07T20:54:55.370Z,14.38
2023-05-07T20:59:57.109Z,12.85
2023-05-07T21:04:58.584Z,11.50
2023-05-07T21:09:59.959Z,13.18
2023-05-07T21:15:01.232Z,13.63
2023-05-07T21:20:03.302Z,15.30
2023-05-07T21:25:05.143Z,17.55
2023-05-07T21:30:07.283Z,17.92
2023-05-07T21:35:09.071Z,18.48
2023-05-07T21:40:11.133Z,18.10
2023-05-07T21:45:12.960Z,19.70
2023-05-07T21:50:14.621Z,19.15
2023-05-07T21:55:19.910Z,19.27
2023-05-07T22:00:22.939Z,19.70
2023-05-07T22:05:24.118Z,20.83
2023-05-07T22:10:25.480Z,21.83
2023-05-07T22:15:26.851Z,20.30
2023-05-07T22:20:28.232Z,22.10
2023-05-07T22:25:33.843Z,31.17
2023-05-07T22:30:35.261Z,31.40
2023-05-07T22:35:36.799Z,34.20
2023-05-07T22:40:38.262Z,26.23
2023-05-07T22:45:39.809Z,30.17
2023-05-07T22:50:41.254Z,33.43
2023-05-07T22:55:42.445Z,30.80
2023-05-07T23:00:43.881Z,37.80
2023-05-07T23:05:45.329Z,31.63
2023-05-07T23:10:46.756Z,31.60
2023-05-07T23:15:48.996Z,38.40
2023-05-07T23:20:50.358Z,44.60
2023-05-07T23:25:52.441Z,43.63
2023-05-07T23:30:53.826Z,49.37
2023-05-07T23:36:02.721Z,51.33
2023-05-07T23:41:04.006Z,44.53
2023-05-07T23:46:05.532Z,45.10
2023-05-07T23:51:06.897Z,48.33
2023-05-07T23:56:08.234Z,54.93
